Time;durP1;ratioP1;P1;durP2;ratioP2;P2;SDS_P1;SDS_P2;PMS_P1;PMS_P2;Temp;Humidity;BMP_temperature;BMP_pressure;BME280_temperature;BME280_humidity;BME280_pressure;Samples;Min_cycle;Max_cycle;Signal;HPM_P1;HPM_P2
2021/04/03 00:01:29;;;;;;;20.93;15.03;;;;;;;;;;4432447;32;20383;-61
2021/04/03 00:03:55;;;;;;;22.50;14.77;;;;;;;;;;4432189;32;20246;-61
2021/04/03 00:06:20;;;;;;;22.67;15.10;;;;;;;;;;4432120;32;20282;-61
2021/04/03 00:08:46;;;;;;;20.40;15.10;;;;;;;;;;4432373;32;20433;-61
2021/04/03 00:11:13;;;;;;;19.80;13.97;;;;;;;;;;4432345;32;20752;-61
2021/04/03 00:13:42;;;;;;;17.97;13.10;;;;;;;;;;4432459;32;20225;-61
2021/04/03 00:16:07;;;;;;;24.73;15.47;;;;;;;;;;4432669;32;20335;-61
2021/04/03 00:18:34;;;;;;;31.00;18.23;;;;;;;;;;4431740;32;20231;-61
2021/04/03 00:21:00;;;;;;;40.23;23.07;;;;;;;;;;4431921;32;20193;-61
2021/04/03 00:23:25;;;;;;;82.10;46.60;;;;;;;;;;4432240;32;20314;-62
2021/04/03 00:25:51;;;;;;;56.97;34.43;;;;;;;;;;4430542;32;20396;-62
2021/04/03 00:28:17;;;;;;;51.60;32.67;;;;;;;;;;4430697;32;20275;-62
2021/04/03 00:30:43;;;;;;;53.10;35.27;;;;;;;;;;4430502;32;20346;-61
2021/04/03 00:33:08;;;;;;;57.57;34.83;;;;;;;;;;4431504;32;20227;-62
2021/04/03 00:35:37;;;;;;;37.90;25.63;;;;;;;;;;4435192;32;20279;-63
2021/04/03 00:38:04;;;;;;;37.77;23.90;;;;;;;;;;4447416;32;20692;-63
2021/04/03 00:40:45;;;;;;;37.70;25.50;;;;;;;;;;4447417;32;20216;-56
2021/04/03 00:43:16;;;;;;;35.80;25.77;;;;;;;;;;4445906;32;20284;-55
2021/04/03 00:45:43;;;;;;;42.20;28.07;;;;;;;;;;4447486;32;20204;-55
2021/04/03 00:48:09;;;;;;;37.53;26.03;;;;;;;;;;4447108;32;20255;-55
2021/04/03 00:50:42;;;;;;;39.13;25.97;;;;;;;;;;4447065;32;20770;-61
2021/04/03 00:53:13;;;;;;;42.53;28.27;;;;;;;;;;4447213;32;20224;-62
2021/04/03 00:55:39;;;;;;;59.60;36.00;;;;;;;;;;4447503;32;20612;-62
2021/04/03 00:58:06;;;;;;;59.40;38.53;;;;;;;;;;4435820;32;20352;-56
2021/04/03 01:00:31;;;;;;;57.53;38.90;;;;;;;;;;4417690;32;20338;-56
2021/04/03 01:02:57;;;;;;;50.40;32.28;;;;;;;;;;4431189;32;20264;-62
2021/04/03 01:05:25;;;;;;;41.73;28.53;;;;;;;;;;4431231;32;20726;-62
2021/04/03 01:07:51;;;;;;;44.10;30.67;;;;;;;;;;4434755;32;20243;-61
2021/04/03 01:10:22;;;;;;;45.90;28.60;;;;;;;;;;4434104;32;20363;-61
2021/04/03 01:13:22;;;;;;;37.67;25.23;;;;;;;;;;4434693;32;20225;-61
2021/04/03 01:16:11;;;;;;;48.47;30.43;;;;;;;;;;4434879;32;20287;-60
2021/04/03 01:18:59;;;;;;;51.67;31.90;;;;;;;;;;4433341;32;20557;-60
2021/04/03 01:21:53;;;;;;;37.00;28.13;;;;;;;;;;4434452;32;20216;-60
2021/04/03 01:24:53;;;;;;;35.97;26.00;;;;;;;;;;4434665;32;20228;-60
2021/04/03 01:27:25;;;;;;;32.67;23.60;;;;;;;;;;4433104;32;20225;-61
2021/04/03 01:29:53;;;;;;;27.63;18.30;;;;;;;;;;4434514;32;20189;-60
2021/04/03 01:32:31;;;;;;;31.07;19.20;;;;;;;;;;4434574;32;20209;-60
2021/04/03 01:35:00;;;;;;;33.93;23.37;;;;;;;;;;4434349;32;20231;-59
2021/04/03 01:37:27;;;;;;;25.60;15.77;;;;;;;;;;4418835;32;20759;-59
2021/04/03 01:39:55;;;;;;;13.23;11.73;;;;;;;;;;4418869;32;20197;-60
2021/04/03 01:42:24;;;;;;;12.00;9.10;;;;;;;;;;4417655;32;20303;-60
2021/04/03 01:45:00;;;;;;;16.17;12.73;;;;;;;;;;4417553;32;20333;-59
2021/04/03 01:47:28;;;;;;;15.30;9.70;;;;;;;;;;4418999;32;20413;-60
2021/04/03 01:49:56;;;;;;;14.77;10.53;;;;;;;;;;4418695;32;20239;-60
2021/04/03 01:52:26;;;;;;;50.30;30.27;;;;;;;;;;4418661;32;20327;-60
2021/04/03 01:54:54;;;;;;;61.73;33.67;;;;;;;;;;4418640;32;20395;-59
2021/04/03 01:57:21;;;;;;;30.17;19.50;;;;;;;;;;4424074;32;20216;-60
2021/04/03 01:59:48;;;;;;;16.40;11.47;;;;;;;;;;4434254;32;20245;-61
2021/04/03 02:02:14;;;;;;;15.30;9.77;;;;;;;;;;4433941;32;20282;-61
2021/04/03 02:04:44;;;;;;;9.87;7.60;;;;;;;;;;4433763;32;20208;-60
2021/04/03 02:07:19;;;;;;;11.17;8.83;;;;;;;;;;4433921;32;20228;-60
2021/04/03 02:09:52;;;;;;;9.80;8.27;;;;;;;;;;4433737;32;20456;-61
2021/04/03 02:12:18;;;;;;;11.77;8.27;;;;;;;;;;4433751;32;20289;-60
2021/04/03 02:14:48;;;;;;;9.67;6.97;;;;;;;;;;4433687;32;20276;-60
2021/04/03 02:17:15;;;;;;;8.83;7.00;;;;;;;;;;4433459;32;20584;-60
2021/04/03 02:19:41;;;;;;;9.00;7.00;;;;;;;;;;4433414;32;20284;-60
2021/04/03 02:22:07;;;;;;;11.13;7.87;;;;;;;;;;4433760;32;20618;-60
2021/04/03 02:24:33;;;;;;;12.80;8.50;;;;;;;;;;4433562;32;20291;-60
2021/04/03 02:26:58;;;;;;;12.67;9.60;;;;;;;;;;4433449;32;20568;-60
2021/04/03 02:29:24;;;;;;;12.50;10.13;;;;;;;;;;4433680;32;20320;-60
2021/04/03 02:31:50;;;;;;;17.30;12.27;;;;;;;;;;4433866;32;20570;-60
2021/04/03 02:34:16;;;;;;;18.50;13.63;;;;;;;;;;4433464;32;20708;-61
2021/04/03 02:36:42;;;;;;;16.80;13.70;;;;;;;;;;4432085;32;20255;-60
2021/04/03 02:39:08;;;;;;;16.47;12.53;;;;;;;;;;4433119;32;20264;-60
2021/04/03 02:41:44;;;;;;;14.63;10.67;;;;;;;;;;4433114;32;20368;-60
2021/04/03 02:44:13;;;;;;;19.53;10.93;;;;;;;;;;4433615;32;20368;-59
2021/04/03 02:46:57;;;;;;;14.93;10.60;;;;;;;;;;4432149;32;20734;-60
2021/04/03 02:49:30;;;;;;;17.23;11.10;;;;;;;;;;4433691;32;20189;-60
2021/04/03 02:51:57;;;;;;;18.20;11.40;;;;;;;;;;4433507;32;20348;-54
2021/04/03 02:54:25;;;;;;;16.13;11.33;;;;;;;;;;4433364;32;20577;-55
2021/04/03 02:56:52;;;;;;;13.20;11.60;;;;;;;;;;4433268;32;20220;-56
2021/04/03 02:59:26;;;;;;;15.40;12.70;;;;;;;;;;4432151;32;20642;-56
2021/04/03 03:01:54;;;;;;;14.83;13.03;;;;;;;;;;4433139;32;20216;-56
2021/04/03 03:04:21;;;;;;;17.90;13.70;;;;;;;;;;4433306;32;20249;-56
2021/04/03 03:06:48;;;;;;;22.07;16.03;;;;;;;;;;4419539;32;20220;-56
2021/04/03 03:09:16;;;;;;;24.40;16.60;;;;;;;;;;4433008;32;20225;-56
2021/04/03 03:11:46;;;;;;;33.30;18.80;;;;;;;;;;4431895;32;20225;-55
2021/04/03 03:14:16;;;;;;;27.73;20.80;;;;;;;;;;4432987;32;20665;-55
2021/04/03 03:16:44;;;;;;;34.67;23.40;;;;;;;;;;4432936;32;20507;-55
2021/04/03 03:19:11;;;;;;;42.40;27.83;;;;;;;;;;4432660;32;20231;-55
2021/04/03 03:21:38;;;;;;;45.43;30.57;;;;;;;;;;4433035;32;20231;-56
2021/04/03 03:24:06;;;;;;;48.17;33.17;;;;;;;;;;4432876;32;20541;-56
2021/04/03 03:26:33;;;;;;;40.90;30.57;;;;;;;;;;4431580;32;20724;-56
2021/04/03 03:28:59;;;;;;;44.80;30.90;;;;;;;;;;4431206;32;20523;-56
2021/04/03 03:31:24;;;;;;;44.33;29.87;;;;;;;;;;4433008;32;20290;-56
2021/04/03 03:33:50;;;;;;;40.70;27.50;;;;;;;;;;4432721;32;20296;-56
2021/04/03 03:36:16;;;;;;;49.00;28.70;;;;;;;;;;4440674;32;20287;-55
2021/04/03 03:38:42;;;;;;;39.70;27.10;;;;;;;;;;4448384;32;20685;-56
2021/04/03 03:41:09;;;;;;;28.63;21.70;;;;;;;;;;4448093;32;20268;-57
2021/04/03 03:43:34;;;;;;;26.97;20.70;;;;;;;;;;4448124;32;20255;-56
2021/04/03 03:46:03;;;;;;;32.60;19.77;;;;;;;;;;4448451;32;20264;-56
2021/04/03 03:48:28;;;;;;;25.03;18.97;;;;;;;;;;4448087;32;20220;-56
2021/04/03 03:50:54;;;;;;;31.97;20.10;;;;;;;;;;4434032;32;20337;-55
2021/04/03 03:53:20;;;;;;;32.30;20.60;;;;;;;;;;4447957;32;20224;-55
2021/04/03 03:55:45;;;;;;;29.17;19.97;;;;;;;;;;4447823;32;20412;-55
2021/04/03 03:58:10;;;;;;;30.20;21.80;;;;;;;;;;4437028;32;20326;-55
2021/04/03 04:00:36;;;;;;;41.30;24.97;;;;;;;;;;4432576;32;20344;-55
2021/04/03 04:03:01;;;;;;;36.50;23.07;;;;;;;;;;4432040;32;20654;-55
2021/04/03 04:05:27;;;;;;;28.33;21.27;;;;;;;;;;4431036;32;20307;-55
2021/04/03 04:07:52;;;;;;;29.87;21.40;;;;;;;;;;4432263;32;20248;-55
2021/04/03 04:10:18;;;;;;;31.23;21.20;;;;;;;;;;4432245;32;20293;-55
2021/04/03 04:12:44;;;;;;;33.57;19.83;;;;;;;;;;4432038;32;20408;-60
2021/04/03 04:15:10;;;;;;;28.67;19.93;;;;;;;;;;4432115;32;20351;-60
2021/04/03 04:17:35;;;;;;;33.97;20.53;;;;;;;;;;4428315;32;20428;-62
2021/04/03 04:20:01;;;;;;;27.67;20.73;;;;;;;;;;4417166;32;20417;-61
2021/04/03 04:22:27;;;;;;;34.43;24.07;;;;;;;;;;4417071;32;20260;-61
2021/04/03 04:24:52;;;;;;;43.70;29.87;;;;;;;;;;4416787;32;20272;-60
2021/04/03 04:27:18;;;;;;;39.90;28.80;;;;;;;;;;4416983;32;20324;-60
2021/04/03 04:29:43;;;;;;;44.93;27.87;;;;;;;;;;4416738;32;20565;-60
2021/04/03 04:32:09;;;;;;;46.27;30.23;;;;;;;;;;4417159;32;20300;-60
2021/04/03 04:34:34;;;;;;;49.03;33.03;;;;;;;;;;4420894;32;20303;-60
2021/04/03 04:37:00;;;;;;;62.60;38.77;;;;;;;;;;4444723;32;20255;-60
2021/04/03 04:39:25;;;;;;;57.30;40.00;;;;;;;;;;4447780;32;20300;-60
2021/04/03 04:41:51;;;;;;;53.53;40.03;;;;;;;;;;4450490;32;20250;-60
2021/04/03 04:44:16;;;;;;;54.10;38.43;;;;;;;;;;4450904;32;20320;-61
2021/04/03 04:46:42;;;;;;;61.17;37.17;;;;;;;;;;4450527;32;20647;-55
2021/04/03 04:49:07;;;;;;;54.80;35.83;;;;;;;;;;4450414;32;20397;-55
2021/04/03 04:51:33;;;;;;;59.83;38.53;;;;;;;;;;4450625;32;20289;-56
2021/04/03 04:53:58;;;;;;;57.80;37.90;;;;;;;;;;4450779;32;20255;-56
2021/04/03 04:56:24;;;;;;;58.33;35.27;;;;;;;;;;4450265;32;20373;-55
2021/04/03 04:58:49;;;;;;;51.73;36.67;;;;;;;;;;4435321;32;20653;-55
2021/04/03 05:01:15;;;;;;;56.13;34.93;;;;;;;;;;4435329;32;20354;-55
2021/04/03 05:03:40;;;;;;;58.80;33.13;;;;;;;;;;4434531;32;20327;-55
2021/04/03 05:06:06;;;;;;;47.53;35.70;;;;;;;;;;4434728;32;20341;-54
2021/04/03 05:08:31;;;;;;;56.47;34.50;;;;;;;;;;4435024;32;20220;-55
2021/04/03 05:10:57;;;;;;;54.63;35.73;;;;;;;;;;4434871;32;20343;-54
2021/04/03 05:13:22;;;;;;;50.43;34.73;;;;;;;;;;4435059;32;20281;-54
2021/04/03 05:15:53;;;;;;;72.63;51.97;;;;;;;;;;4435196;32;20280;-55
2021/04/03 05:18:19;;;;;;;63.13;43.37;;;;;;;;;;4434812;32;20580;-55
2021/04/03 05:20:44;;;;;;;72.57;47.33;;;;;;;;;;4435021;32;20264;-56
2021/04/03 05:23:10;;;;;;;81.37;51.30;;;;;;;;;;4434860;32;20307;-55
2021/04/03 05:25:35;;;;;;;70.37;48.57;;;;;;;;;;4434656;32;20316;-55
2021/04/03 05:28:00;;;;;;;81.07;54.07;;;;;;;;;;4434888;32;20376;-55
2021/04/03 05:30:26;;;;;;;88.63;59.23;;;;;;;;;;4434617;32;20275;-55
2021/04/03 05:32:52;;;;;;;94.07;56.63;;;;;;;;;;4433404;32;20221;-56
2021/04/03 05:35:17;;;;;;;76.97;52.70;;;;;;;;;;4435017;32;20443;-55
2021/04/03 05:37:44;;;;;;;71.23;49.07;;;;;;;;;;4449991;32;20240;-55
2021/04/03 05:40:10;;;;;;;67.97;46.37;;;;;;;;;;4449999;32;20276;-55
2021/04/03 05:42:35;;;;;;;80.97;54.37;;;;;;;;;;4449952;32;20232;-55
2021/04/03 05:45:03;;;;;;;87.97;57.73;;;;;;;;;;4449935;32;20303;-55
2021/04/03 05:47:35;;;;;;;89.50;58.93;;;;;;;;;;4449760;32;20557;-55
2021/04/03 05:50:03;;;;;;;81.27;56.00;;;;;;;;;;4449895;32;20268;-56
2021/04/03 05:52:28;;;;;;;76.93;55.10;;;;;;;;;;4449130;32;20219;-55
2021/04/03 05:54:54;;;;;;;86.63;61.30;;;;;;;;;;4449850;32;20719;-56
2021/04/03 05:57:22;;;;;;;101.00;71.90;;;;;;;;;;4443895;32;20300;-54
2021/04/03 05:59:48;;;;;;;84.93;61.67;;;;;;;;;;4434451;32;20209;-54
2021/04/03 06:02:14;;;;;;;81.37;56.67;;;;;;;;;;4430060;32;20335;-55
2021/04/03 06:04:40;;;;;;;85.90;58.03;;;;;;;;;;4425514;32;20688;-55
2021/04/03 06:07:05;;;;;;;70.20;50.80;;;;;;;;;;4434418;32;20279;-56
2021/04/03 06:09:31;;;;;;;64.23;48.43;;;;;;;;;;4433890;32;20314;-55
2021/04/03 06:11:56;;;;;;;91.33;63.27;;;;;;;;;;4426296;32;20299;-55
2021/04/03 06:14:22;;;;;;;95.30;64.50;;;;;;;;;;4434385;32;20271;-56
2021/04/03 06:16:52;;;;;;;81.47;57.90;;;;;;;;;;4434123;32;20283;-55
2021/04/03 06:19:22;;;;;;;76.83;53.00;;;;;;;;;;4418790;32;20559;-55
2021/04/03 06:21:47;;;;;;;78.20;53.97;;;;;;;;;;4417518;32;20274;-56
2021/04/03 06:24:16;;;;;;;75.83;51.30;;;;;;;;;;4418719;32;20268;-55
2021/04/03 06:26:50;;;;;;;70.23;50.27;;;;;;;;;;4418586;32;20295;-56
2021/04/03 06:29:26;;;;;;;70.47;50.37;;;;;;;;;;4418514;32;20604;-55
2021/04/03 06:31:53;;;;;;;71.93;50.90;;;;;;;;;;4417240;32;20291;-55
2021/04/03 06:34:29;;;;;;;72.33;46.50;;;;;;;;;;4421980;32;20221;-55
2021/04/03 06:36:55;;;;;;;73.47;47.93;;;;;;;;;;4433732;32;20212;-55
2021/04/03 06:39:21;;;;;;;57.97;40.37;;;;;;;;;;4433290;32;20306;-56
2021/04/03 06:41:46;;;;;;;44.33;30.67;;;;;;;;;;4433409;32;20266;-54
2021/04/03 06:44:12;;;;;;;73.93;48.30;;;;;;;;;;4432233;32;20668;-57
2021/04/03 06:46:44;;;;;;;55.87;41.30;;;;;;;;;;4433408;32;20324;-55
2021/04/03 06:49:11;;;;;;;45.73;33.90;;;;;;;;;;4433741;32;20194;-55
2021/04/03 06:51:37;;;;;;;40.80;32.20;;;;;;;;;;4433591;32;20256;-55
2021/04/03 06:54:05;;;;;;;44.30;33.47;;;;;;;;;;4433422;32;20280;-55
2021/04/03 06:56:36;;;;;;;50.33;32.57;;;;;;;;;;4432305;32;20337;-55
2021/04/03 06:59:04;;;;;;;39.17;28.70;;;;;;;;;;4433691;32;20417;-55
2021/04/03 07:01:46;;;;;;;44.00;32.00;;;;;;;;;;4433247;32;20278;-56
2021/04/03 07:04:24;;;;;;;42.20;32.93;;;;;;;;;;4432318;32;20292;-56
2021/04/03 07:06:50;;;;;;;40.90;31.53;;;;;;;;;;4433269;32;20603;-55
2021/04/03 07:09:18;;;;;;;38.47;29.90;;;;;;;;;;4432055;32;20319;-55
2021/04/03 07:11:46;;;;;;;41.97;30.50;;;;;;;;;;4432324;32;20258;-54
2021/04/03 07:14:14;;;;;;;37.30;32.13;;;;;;;;;;4433426;32;20628;-55
2021/04/03 07:16:41;;;;;;;48.10;34.53;;;;;;;;;;4433294;32;20225;-54
2021/04/03 07:19:10;;;;;;;39.80;34.03;;;;;;;;;;4433207;32;20225;-59
2021/04/03 07:21:36;;;;;;;43.77;33.67;;;;;;;;;;4433342;32;20216;-58
2021/04/03 07:24:02;;;;;;;44.43;31.47;;;;;;;;;;4433077;32;20645;-60
2021/04/03 07:26:28;;;;;;;40.70;33.03;;;;;;;;;;4433066;32;20699;-58
2021/04/03 07:28:54;;;;;;;39.17;30.00;;;;;;;;;;4432898;32;20272;-59
2021/04/03 07:31:42;;;;;;;39.70;32.17;;;;;;;;;;4433035;32;20290;-59
2021/04/03 07:34:08;;;;;;;34.57;26.60;;;;;;;;;;4431398;32;20224;-59
2021/04/03 07:36:39;;;;;;;37.97;28.53;;;;;;;;;;4432950;32;20624;-59
2021/04/03 07:39:06;;;;;;;35.83;29.73;;;;;;;;;;4432095;32;20197;-59
2021/04/03 07:41:36;;;;;;;34.07;30.00;;;;;;;;;;4432719;32;20279;-59
2021/04/03 07:44:14;;;;;;;37.50;27.03;;;;;;;;;;4432843;32;20220;-59
2021/04/03 07:46:45;;;;;;;27.80;23.43;;;;;;;;;;4432706;32;20255;-59
2021/04/03 07:49:29;;;;;;;26.37;19.83;;;;;;;;;;4432392;32;20296;-59
2021/04/03 07:51:55;;;;;;;32.00;24.80;;;;;;;;;;4432809;32;20339;-55
2021/04/03 07:54:26;;;;;;;32.50;25.13;;;;;;;;;;4432529;32;20300;-54
2021/04/03 07:56:57;;;;;;;29.57;24.07;;;;;;;;;;4432470;32;20201;-56
2021/04/03 07:59:47;;;;;;;34.07;23.37;;;;;;;;;;4432114;32;20274;-55
2021/04/03 08:02:24;;;;;;;33.03;26.20;;;;;;;;;;4432312;32;20861;-55
2021/04/03 08:04:50;;;;;;;34.40;27.03;;;;;;;;;;4432662;32;20275;-55
2021/04/03 08:07:19;;;;;;;31.40;26.00;;;;;;;;;;4432582;32;21060;-55
2021/04/03 08:09:44;;;;;;;31.33;23.90;;;;;;;;;;4431094;32;20217;-55
2021/04/03 08:12:10;;;;;;;31.13;22.50;;;;;;;;;;4432229;32;20243;-55
2021/04/03 08:14:36;;;;;;;31.13;23.73;;;;;;;;;;4432363;32;20272;-54
2021/04/03 08:17:05;;;;;;;26.67;20.43;;;;;;;;;;4432133;32;20657;-54
2021/04/03 08:19:33;;;;;;;22.93;18.90;;;;;;;;;;4432017;32;20209;-55
2021/04/03 08:22:00;;;;;;;22.33;17.30;;;;;;;;;;4418548;32;20221;-55
2021/04/03 08:24:25;;;;;;;27.70;18.53;;;;;;;;;;4431486;32;20633;-54
2021/04/03 08:26:52;;;;;;;28.20;19.67;;;;;;;;;;4431127;32;20250;-54
2021/04/03 08:29:23;;;;;;;23.40;16.77;;;;;;;;;;4432055;32;20644;-54
2021/04/03 08:31:50;;;;;;;31.80;17.37;;;;;;;;;;4432323;32;20220;-54
2021/04/03 08:34:16;;;;;;;21.02;15.82;;;;;;;;;;4432099;32;20231;-54
2021/04/03 08:36:42;;;;;;;23.30;17.80;;;;;;;;;;4432576;32;20200;-54
2021/04/03 08:39:13;;;;;;;26.87;19.60;;;;;;;;;;4432414;32;20609;-55
2021/04/03 08:41:41;;;;;;;28.07;18.13;;;;;;;;;;4432438;32;20201;-54
2021/04/03 08:44:16;;;;;;;23.67;17.50;;;;;;;;;;4432529;32;20262;-54
2021/04/03 08:46:43;;;;;;;19.60;15.67;;;;;;;;;;4432498;32;20565;-54
2021/04/03 08:49:10;;;;;;;18.13;15.87;;;;;;;;;;4432296;32;20209;-54
2021/04/03 08:51:36;;;;;;;17.23;15.40;;;;;;;;;;4443744;32;20251;-54
2021/04/03 08:54:03;;;;;;;23.45;16.80;;;;;;;;;;4432902;32;20299;-54
2021/04/03 08:56:37;;;;;;;27.00;18.03;;;;;;;;;;4431195;32;20248;-60
2021/04/03 08:59:07;;;;;;;27.40;16.87;;;;;;;;;;4419022;32;20742;-59
2021/04/03 09:01:36;;;;;;;25.10;16.07;;;;;;;;;;4419511;32;20618;-59
2021/04/03 09:04:07;;;;;;;21.20;16.33;;;;;;;;;;4416611;32;20730;-60
2021/04/03 09:06:46;;;;;;;29.87;18.67;;;;;;;;;;4416464;32;20540;-60
2021/04/03 09:09:23;;;;;;;23.92;16.75;;;;;;;;;;4416685;32;20275;-59
2021/04/03 09:12:02;;;;;;;25.25;17.23;;;;;;;;;;4417093;32;20539;-59
2021/04/03 09:14:37;;;;;;;25.17;17.20;;;;;;;;;;4417192;32;20202;-60
2021/04/03 09:17:05;;;;;;;24.48;16.85;;;;;;;;;;4416869;32;20224;-60
2021/04/03 09:19:35;;;;;;;28.85;16.87;;;;;;;;;;4432012;32;20261;-54
2021/04/03 09:22:02;;;;;;;26.50;15.88;;;;;;;;;;4431827;32;20353;-53
2021/04/03 09:24:45;;;;;;;28.87;18.27;;;;;;;;;;4432184;32;20231;-54
2021/04/03 09:27:17;;;;;;;25.48;17.52;;;;;;;;;;4431355;32;20254;-54
2021/04/03 09:29:45;;;;;;;27.87;18.53;;;;;;;;;;4435017;32;20201;-54
2021/04/03 09:32:12;;;;;;;27.85;16.98;;;;;;;;;;4433954;32;20344;-54
2021/04/03 09:34:39;;;;;;;27.52;17.48;;;;;;;;;;4434390;32;20200;-55
2021/04/03 09:37:21;;;;;;;28.67;19.05;;;;;;;;;;4434620;32;20736;-54
2021/04/03 09:39:50;;;;;;;32.55;19.23;;;;;;;;;;4434410;32;20240;-54
2021/04/03 09:42:17;;;;;;;20.35;17.48;;;;;;;;;;4433880;32;20255;-59
2021/04/03 09:44:44;;;;;;;42.15;17.90;;;;;;;;;;4432606;32;20228;-59
2021/04/03 09:47:10;;;;;;;25.50;20.20;;;;;;;;;;4432096;32;20708;-60
2021/04/03 09:49:38;;;;;;;34.58;22.00;;;;;;;;;;4432249;32;20641;-59
2021/04/03 09:52:04;;;;;;;24.40;17.53;;;;;;;;;;4432279;32;20236;-59
2021/04/03 09:54:29;;;;;;;24.90;17.48;;;;;;;;;;4432366;32;20291;-59
2021/04/03 09:56:54;;;;;;;29.23;18.00;;;;;;;;;;4428590;32;20451;-59
2021/04/03 09:59:20;;;;;;;23.85;16.35;;;;;;;;;;4416498;32;20679;-59
2021/04/03 10:01:45;;;;;;;24.35;18.45;;;;;;;;;;4418303;32;20812;-60
2021/04/03 10:04:11;;;;;;;28.55;19.50;;;;;;;;;;4418459;32;20319;-58
2021/04/03 10:06:37;;;;;;;26.85;20.67;;;;;;;;;;4418567;32;20214;-59
2021/04/03 10:09:03;;;;;;;29.77;17.12;;;;;;;;;;4418381;32;20728;-60
2021/04/03 10:11:28;;;;;;;27.95;19.12;;;;;;;;;;4418118;32;20689;-60
2021/04/03 10:13:54;;;;;;;32.50;23.00;;;;;;;;;;4417251;32;20315;-54
2021/04/03 10:16:19;;;;;;;30.95;21.58;;;;;;;;;;4417217;32;20712;-54
2021/04/03 10:18:45;;;;;;;25.50;20.80;;;;;;;;;;4429858;32;20220;-54
2021/04/03 10:21:11;;;;;;;34.22;23.30;;;;;;;;;;4433552;32;20299;-55
2021/04/03 10:23:37;;;;;;;33.72;23.50;;;;;;;;;;4431720;32;20259;-60
2021/04/03 10:26:03;;;;;;;45.30;23.27;;;;;;;;;;4433431;32;20320;-59
2021/04/03 10:28:28;;;;;;;35.72;26.73;;;;;;;;;;4433977;32;20651;-60
2021/04/03 10:30:54;;;;;;;34.30;25.75;;;;;;;;;;4427519;32;20302;-60
2021/04/03 10:33:20;;;;;;;33.33;24.17;;;;;;;;;;4417747;32;20381;-60
2021/04/03 10:35:45;;;;;;;39.25;27.00;;;;;;;;;;4418459;32;20288;-60
2021/04/03 10:38:11;;;;;;;33.60;25.05;;;;;;;;;;4418219;32;20327;-59
2021/04/03 10:40:36;;;;;;;35.78;25.90;;;;;;;;;;4431279;32;20342;-59
2021/04/03 10:43:02;;;;;;;32.15;24.90;;;;;;;;;;4432874;32;20247;-60
2021/04/03 10:45:27;;;;;;;27.65;18.70;;;;;;;;;;4433443;32;20284;-55
2021/04/03 10:47:53;;;;;;;36.75;20.48;;;;;;;;;;4433070;32;20646;-55
2021/04/03 10:50:19;;;;;;;25.67;18.42;;;;;;;;;;4433132;32;20713;-55
2021/04/03 10:52:45;;;;;;;33.73;21.43;;;;;;;;;;4433078;32;20285;-55
2021/04/03 10:55:11;;;;;;;33.85;22.60;;;;;;;;;;4431787;32;20626;-54
2021/04/03 10:57:36;;;;;;;39.70;25.05;;;;;;;;;;4431790;32;20312;-55
2021/04/03 11:00:04;;;;;;;28.50;21.33;;;;;;;;;;4433414;32;20283;-55
2021/04/03 11:02:30;;;;;;;35.83;19.87;;;;;;;;;;4432747;32;20640;-56
2021/04/03 11:04:55;;;;;;;28.80;20.75;;;;;;;;;;4433199;32;20219;-53
2021/04/03 11:07:21;;;;;;;30.70;23.42;;;;;;;;;;4433061;32;20433;-55
2021/04/03 11:09:46;;;;;;;36.38;24.27;;;;;;;;;;4433144;32;20666;-55
2021/04/03 11:12:13;;;;;;;29.35;23.33;;;;;;;;;;4432507;32;20362;-54
2021/04/03 11:14:41;;;;;;;40.88;23.40;;;;;;;;;;4433019;32;20225;-55
2021/04/03 11:17:06;;;;;;;31.90;19.12;;;;;;;;;;4431887;32;20224;-54
2021/04/03 11:19:32;;;;;;;16.42;11.43;;;;;;;;;;4417726;32;20666;-54
2021/04/03 11:21:58;;;;;;;17.48;11.38;;;;;;;;;;4417153;32;20718;-54
2021/04/03 11:24:24;;;;;;;22.80;15.23;;;;;;;;;;4417358;32;20349;-54
2021/04/03 11:26:50;;;;;;;19.17;14.73;;;;;;;;;;4417451;32;20251;-54
2021/04/03 11:29:16;;;;;;;28.35;16.40;;;;;;;;;;4416296;32;20716;-55
2021/04/03 11:31:41;;;;;;;26.95;18.83;;;;;;;;;;4415766;32;20232;-54
2021/04/03 11:34:07;;;;;;;28.12;18.05;;;;;;;;;;4432862;32;20307;-55
2021/04/03 11:36:32;;;;;;;36.60;18.25;;;;;;;;;;4432522;32;20426;-54
2021/04/03 11:38:58;;;;;;;21.12;16.40;;;;;;;;;;4432707;32;20263;-55
2021/04/03 11:41:23;;;;;;;22.52;13.05;;;;;;;;;;4432491;32;20465;-55
2021/04/03 11:43:49;;;;;;;23.38;10.80;;;;;;;;;;4432330;32;20662;-55
2021/04/03 11:46:15;;;;;;;25.90;6.72;;;;;;;;;;4432119;32;20296;-55
2021/04/03 11:48:41;;;;;;;271.00;162.60;;;;;;;;;;4432725;32;20804;-54
2021/04/03 11:51:07;;;;;;;25.52;15.15;;;;;;;;;;4429806;32;20360;-55
2021/04/03 11:53:32;;;;;;;17.08;11.85;;;;;;;;;;4422832;32;20241;-55
2021/04/03 11:55:58;;;;;;;45.50;38.67;;;;;;;;;;4424921;32;20314;-55
2021/04/03 11:58:24;;;;;;;18.85;11.52;;;;;;;;;;4426670;32;20354;-55
2021/04/03 12:00:49;;;;;;;19.25;11.77;;;;;;;;;;4444504;32;20702;-55
2021/04/03 12:03:15;;;;;;;16.90;11.55;;;;;;;;;;4431661;32;20379;-54
2021/04/03 12:05:41;;;;;;;23.02;15.35;;;;;;;;;;4432844;32;20373;-55
2021/04/03 12:08:07;;;;;;;14.98;10.55;;;;;;;;;;4432213;32;20258;-55
2021/04/03 12:10:33;;;;;;;12.77;8.10;;;;;;;;;;4432390;32;20307;-55
2021/04/03 12:12:58;;;;;;;160.60;89.07;;;;;;;;;;4432015;32;20535;-54
2021/04/03 12:15:25;;;;;;;22.85;16.08;;;;;;;;;;4432545;32;20284;-56
2021/04/03 12:17:51;;;;;;;32.67;21.27;;;;;;;;;;4437923;32;20260;-54
2021/04/03 12:20:17;;;;;;;10.63;6.60;;;;;;;;;;4416672;32;20341;-56
2021/04/03 12:22:44;;;;;;;23.35;12.52;;;;;;;;;;4415470;32;20589;-54
2021/04/03 12:25:10;;;;;;;18.27;8.30;;;;;;;;;;4416907;32;20231;-54
2021/04/03 12:27:36;;;;;;;12.43;5.95;;;;;;;;;;4416513;32;20208;-54
2021/04/03 12:30:02;;;;;;;32.88;18.77;;;;;;;;;;4418418;32;20328;-54
2021/04/03 12:32:31;;;;;;;12.23;6.87;;;;;;;;;;4430475;32;20654;-54
2021/04/03 12:34:57;;;;;;;13.27;5.90;;;;;;;;;;4430934;32;20692;-54
2021/04/03 12:37:22;;;;;;;24.60;13.93;;;;;;;;;;4430468;32;20232;-54
2021/04/03 12:39:48;;;;;;;16.80;6.57;;;;;;;;;;4431650;32;20681;-54
2021/04/03 12:42:13;;;;;;;11.45;4.60;;;;;;;;;;4430317;32;20236;-53
2021/04/03 12:44:39;;;;;;;11.45;5.00;;;;;;;;;;4430733;32;20721;-54
2021/04/03 12:47:05;;;;;;;7.35;4.45;;;;;;;;;;4430472;32;20286;-53
2021/04/03 12:49:31;;;;;;;17.02;7.57;;;;;;;;;;4431821;32;20686;-54
2021/04/03 12:51:57;;;;;;;26.17;20.17;;;;;;;;;;4431801;32;20630;-53
2021/04/03 12:54:22;;;;;;;20.20;13.65;;;;;;;;;;4431844;32;20335;-55
2021/04/03 12:56:49;;;;;;;9.65;4.28;;;;;;;;;;4431675;32;20320;-54
2021/04/03 12:59:14;;;;;;;15.45;7.45;;;;;;;;;;4431972;32;20243;-54
2021/04/03 13:01:40;;;;;;;14.93;7.37;;;;;;;;;;4431717;32;20201;-54
2021/04/03 13:04:05;;;;;;;18.73;5.05;;;;;;;;;;4434555;32;20221;-54
2021/04/03 13:06:31;;;;;;;7.28;3.30;;;;;;;;;;4434971;32;20346;-54
2021/04/03 13:08:56;;;;;;;37.30;23.95;;;;;;;;;;4433759;32;20307;-54
2021/04/03 13:11:22;;;;;;;12.88;6.47;;;;;;;;;;4434850;32;20302;-53
2021/04/03 13:13:48;;;;;;;86.15;49.85;;;;;;;;;;4434523;32;20751;-55
2021/04/03 13:16:13;;;;;;;104.03;57.75;;;;;;;;;;4434420;32;20298;-52
2021/04/03 13:18:39;;;;;;;8.02;5.10;;;;;;;;;;4433565;32;20237;-54
2021/04/03 13:21:05;;;;;;;12.55;5.40;;;;;;;;;;4434713;32;20355;-55
2021/04/03 13:23:30;;;;;;;79.20;28.15;;;;;;;;;;4434561;32;20244;-54
2021/04/03 13:25:56;;;;;;;72.87;27.17;;;;;;;;;;4434446;32;20451;-53
2021/04/03 13:28:21;;;;;;;29.85;14.10;;;;;;;;;;4434523;32;20312;-53
2021/04/03 13:30:47;;;;;;;57.03;24.67;;;;;;;;;;4439019;32;20319;-53
2021/04/03 13:33:13;;;;;;;22.62;7.87;;;;;;;;;;4420903;32;20237;-53
2021/04/03 13:35:38;;;;;;;11.55;5.18;;;;;;;;;;4430256;32;20283;-54
2021/04/03 13:38:04;;;;;;;10.95;6.40;;;;;;;;;;4434417;32;20367;-53
2021/04/03 13:40:29;;;;;;;36.35;17.08;;;;;;;;;;4433333;32;20694;-55
2021/04/03 13:42:55;;;;;;;10.40;5.30;;;;;;;;;;4433734;32;20233;-53
2021/04/03 13:45:20;;;;;;;14.70;6.87;;;;;;;;;;4434207;32;20291;-53
2021/04/03 13:47:46;;;;;;;9.13;5.68;;;;;;;;;;4434464;32;20550;-54
2021/04/03 13:50:12;;;;;;;9.63;4.40;;;;;;;;;;4434620;32;20323;-54
2021/04/03 13:52:37;;;;;;;7.60;4.50;;;;;;;;;;4434202;32;20694;-53
2021/04/03 13:55:04;;;;;;;8.45;4.12;;;;;;;;;;4434747;32;20667;-53
2021/04/03 13:57:31;;;;;;;7.47;5.00;;;;;;;;;;4427572;32;20239;-54
2021/04/03 13:59:57;;;;;;;8.65;6.15;;;;;;;;;;4417732;32;20229;-58
2021/04/03 14:02:22;;;;;;;10.20;5.53;;;;;;;;;;4419009;32;20312;-59
2021/04/03 14:04:48;;;;;;;13.07;7.12;;;;;;;;;;4418827;32;20272;-59
2021/04/03 14:07:14;;;;;;;12.25;7.93;;;;;;;;;;4418877;32;20252;-59
2021/04/03 14:09:41;;;;;;;48.10;20.40;;;;;;;;;;4418527;32;20232;-59
2021/04/03 14:12:07;;;;;;;58.95;25.55;;;;;;;;;;4418369;32;20221;-59
2021/04/03 14:14:32;;;;;;;100.93;44.33;;;;;;;;;;4418502;32;20290;-58
2021/04/03 14:16:58;;;;;;;62.70;29.15;;;;;;;;;;4417104;32;20221;-58
2021/04/03 14:19:23;;;;;;;184.82;77.57;;;;;;;;;;4432512;32;20372;-58
2021/04/03 14:21:49;;;;;;;22.02;9.90;;;;;;;;;;4432399;32;20255;-58